createdAt,value
2023-01-25T00:01:45.917Z,12.65
2023-01-25T00:04:13.149Z,12.05
2023-01-25T00:06:40.298Z,12.75
2023-01-25T00:09:07.471Z,12.50
2023-01-25T00:11:34.649Z,11.40
2023-01-25T00:14:01.811Z,11.90
2023-01-25T00:16:29.069Z,10.95
2023-01-25T00:18:56.288Z,11.05
2023-01-25T00:21:24.618Z,12.00
2023-01-25T00:23:51.873Z,10.57
2023-01-25T00:26:19.633Z,11.50
2023-01-25T00:28:51.009Z,11.63
2023-01-25T00:31:26.633Z,11.77
2023-01-25T00:33:57.843Z,10.65
2023-01-25T00:36:40.033Z,11.82
2023-01-25T00:39:07.677Z,10.88
2023-01-25T00:41:34.866Z,12.05
2023-01-25T00:44:02.127Z,10.95
2023-01-25T00:46:29.268Z,11.43
2023-01-25T00:48:57.739Z,11.60
2023-01-25T00:51:25.547Z,10.68
2023-01-25T00:53:52.945Z,12.73
2023-01-25T00:56:20.360Z,11.65
2023-01-25T00:58:47.565Z,10.93
2023-01-25T01:01:15.033Z,11.55
2023-01-25T01:03:42.196Z,11.82
2023-01-25T01:06:10.842Z,12.30
2023-01-25T01:08:42.044Z,11.52
2023-01-25T01:11:10.945Z,11.30
2023-01-25T01:13:38.662Z,11.00
2023-01-25T01:16:08.342Z,12.00
2023-01-25T01:18:36.309Z,12.57
2023-01-25T01:21:04.030Z,12.68
2023-01-25T01:23:31.725Z,12.30
2023-01-25T01:26:05.922Z,12.18
2023-01-25T01:28:33.774Z,13.23
2023-01-25T01:31:04.728Z,11.90
2023-01-25T01:33:32.494Z,12.32
2023-01-25T01:36:00.704Z,12.48
2023-01-25T01:38:27.838Z,12.13
2023-01-25T01:40:55.142Z,12.32
2023-01-25T01:43:23.770Z,12.57
2023-01-25T01:45:58.738Z,12.45
2023-01-25T01:48:39.007Z,12.70
2023-01-25T01:51:12.982Z,13.02
2023-01-25T01:53:42.297Z,14.70
2023-01-25T01:56:11.699Z,12.73
2023-01-25T01:58:39.344Z,13.35
2023-01-25T02:01:06.604Z,14.30
2023-01-25T02:03:34.137Z,12.25
2023-01-25T02:06:03.661Z,13.52
2023-01-25T02:08:36.692Z,11.90
2023-01-25T02:11:04.963Z,12.98
2023-01-25T02:13:32.543Z,13.40
2023-01-25T02:15:59.944Z,13.70
2023-01-25T02:18:27.327Z,13.35
2023-01-25T02:20:57.828Z,12.43
2023-01-25T02:23:40.589Z,13.27
2023-01-25T02:26:07.881Z,11.68
2023-01-25T02:28:45.069Z,11.90
2023-01-25T02:31:12.320Z,10.23
2023-01-25T02:33:40.283Z,10.32
2023-01-25T02:36:07.414Z,10.55
2023-01-25T02:38:39.723Z,10.18
2023-01-25T02:41:16.324Z,11.18
2023-01-25T02:43:43.447Z,11.40
2023-01-25T02:46:14.998Z,11.10
2023-01-25T02:48:42.127Z,11.35
2023-01-25T02:51:10.410Z,10.65
2023-01-25T02:53:37.596Z,11.25
2023-01-25T02:56:05.177Z,10.82
2023-01-25T02:58:32.370Z,10.93
2023-01-25T03:00:59.916Z,11.57
2023-01-25T03:03:27.115Z,10.50
2023-01-25T03:05:54.370Z,11.23
2023-01-25T03:08:21.544Z,11.38
2023-01-25T03:10:48.736Z,10.77
2023-01-25T03:13:15.891Z,10.07
2023-01-25T03:15:43.103Z,11.23
2023-01-25T03:18:10.279Z,10.90
2023-01-25T03:20:37.417Z,11.02
2023-01-25T03:23:04.553Z,11.05
2023-01-25T03:25:31.702Z,9.98
2023-01-25T03:27:58.853Z,11.07
2023-01-25T03:30:26.268Z,10.55
2023-01-25T03:32:53.481Z,9.82
2023-01-25T03:35:20.655Z,11.00
2023-01-25T03:37:47.826Z,11.55
2023-01-25T03:40:15.784Z,11.55
2023-01-25T03:42:42.969Z,11.27
2023-01-25T03:45:10.494Z,12.25
2023-01-25T03:47:37.842Z,11.60
2023-01-25T03:50:05.158Z,10.18
2023-01-25T03:52:48.619Z,11.13
2023-01-25T03:55:16.447Z,9.88
2023-01-25T03:57:43.621Z,9.20
2023-01-25T04:00:12.852Z,10.93
2023-01-25T04:02:40.730Z,11.02
2023-01-25T04:05:08.464Z,9.95
2023-01-25T04:07:35.846Z,10.35
2023-01-25T04:10:03.100Z,9.93
2023-01-25T04:12:30.298Z,10.15
2023-01-25T04:14:57.493Z,10.40
2023-01-25T04:17:24.657Z,10.95
2023-01-25T04:19:51.803Z,10.88
2023-01-25T04:22:19.148Z,11.32
2023-01-25T04:24:46.275Z,11.18
2023-01-25T04:27:13.466Z,11.50
2023-01-25T04:29:41.913Z,10.82
2023-01-25T04:32:09.532Z,11.38
2023-01-25T04:34:36.792Z,10.43
2023-01-25T04:37:03.907Z,10.10
2023-01-25T04:39:31.093Z,9.95
2023-01-25T04:41:58.203Z,10.50
2023-01-25T04:44:25.376Z,9.45
2023-01-25T04:46:52.499Z,9.25
2023-01-25T04:49:19.839Z,8.80
2023-01-25T04:51:47.023Z,8.52
2023-01-25T04:54:14.203Z,8.77
2023-01-25T04:56:41.435Z,9.57
2023-01-25T04:59:08.602Z,8.88
2023-01-25T05:01:35.943Z,9.50
2023-01-25T05:04:03.088Z,9.18
2023-01-25T05:06:30.246Z,8.98
2023-01-25T05:08:57.392Z,8.85
2023-01-25T05:11:24.536Z,9.20
2023-01-25T05:13:52.143Z,9.13
2023-01-25T05:16:19.299Z,9.75
2023-01-25T05:18:49.310Z,9.32
2023-01-25T05:21:35.361Z,9.98
2023-01-25T05:24:02.544Z,8.95
2023-01-25T05:26:48.800Z,8.60
2023-01-25T05:29:15.957Z,9.32
2023-01-25T05:31:43.155Z,9.40
2023-01-25T05:34:10.514Z,9.88
2023-01-25T05:36:37.708Z,8.30
2023-01-25T05:39:08.709Z,7.90
2023-01-25T05:41:35.910Z,8.82
2023-01-25T05:44:03.217Z,8.35
2023-01-25T05:46:30.487Z,8.68
2023-01-25T05:48:57.681Z,8.48
2023-01-25T05:51:24.936Z,8.57
2023-01-25T05:53:54.791Z,8.13
2023-01-25T05:56:22.046Z,7.97
2023-01-25T05:58:53.026Z,10.05
2023-01-25T06:01:20.230Z,7.88
2023-01-25T06:03:47.660Z,8.68
2023-01-25T06:06:14.852Z,9.23
2023-01-25T06:08:42.009Z,7.40
2023-01-25T06:11:14.327Z,8.45
2023-01-25T06:13:41.557Z,7.35
2023-01-25T06:16:09.206Z,8.80
2023-01-25T06:18:36.657Z,9.10
2023-01-25T06:21:04.373Z,8.45
2023-01-25T06:23:31.790Z,7.80
2023-01-25T06:25:59.771Z,8.32
2023-01-25T06:28:26.946Z,8.00
2023-01-25T06:30:54.171Z,7.03
2023-01-25T06:33:21.313Z,6.80
2023-01-25T06:35:48.570Z,7.45
2023-01-25T06:38:15.738Z,7.68
2023-01-25T06:40:42.903Z,6.30
2023-01-25T06:43:10.825Z,7.00
2023-01-25T06:45:38.256Z,7.07
2023-01-25T06:48:05.488Z,6.65
2023-01-25T06:50:32.631Z,7.28
2023-01-25T06:52:59.796Z,7.32
2023-01-25T06:55:26.944Z,8.07
2023-01-25T06:57:54.115Z,7.82
2023-01-25T07:00:21.329Z,8.10
2023-01-25T07:02:48.575Z,8.55
2023-01-25T07:05:15.738Z,9.50
2023-01-25T07:07:46.358Z,11.52
2023-01-25T07:10:13.550Z,8.98
2023-01-25T07:12:40.693Z,8.82
2023-01-25T07:15:08.407Z,7.85
2023-01-25T07:17:36.042Z,7.95
2023-01-25T07:20:03.251Z,8.23
2023-01-25T07:22:30.465Z,7.68
2023-01-25T07:24:58.992Z,7.07
2023-01-25T07:27:26.132Z,7.05
2023-01-25T07:29:53.309Z,8.23
2023-01-25T07:32:20.742Z,7.88
2023-01-25T07:34:47.968Z,7.72
2023-01-25T07:37:15.267Z,7.25
2023-01-25T07:39:48.128Z,7.38
2023-01-25T07:42:15.479Z,7.18
2023-01-25T07:44:42.821Z,7.68
2023-01-25T07:47:10.004Z,7.82
2023-01-25T07:49:37.140Z,6.88
2023-01-25T07:52:04.650Z,7.65
2023-01-25T07:54:31.928Z,7.38
2023-01-25T07:56:59.071Z,6.95
2023-01-25T07:59:26.334Z,6.53
2023-01-25T08:01:53.526Z,7.38
2023-01-25T08:04:20.699Z,7.13
2023-01-25T08:06:47.903Z,7.63
2023-01-25T08:09:17.380Z,7.35
2023-01-25T08:11:44.572Z,7.00
2023-01-25T08:14:11.981Z,7.63
2023-01-25T08:16:39.120Z,7.32
2023-01-25T08:19:06.284Z,7.65
2023-01-25T08:21:34.424Z,8.70
2023-01-25T08:24:03.618Z,6.82
2023-01-25T08:26:30.843Z,7.55
2023-01-25T08:28:58.385Z,7.18
2023-01-25T08:31:26.828Z,6.97
2023-01-25T08:33:54.218Z,6.88
2023-01-25T08:36:23.968Z,5.63
2023-01-25T08:38:54.840Z,6.78
2023-01-25T08:41:22.461Z,7.47
2023-01-25T08:43:49.775Z,7.18
2023-01-25T08:46:17.585Z,8.45
2023-01-25T08:48:45.520Z,7.72
2023-01-25T08:51:13.599Z,7.97
2023-01-25T08:53:40.993Z,8.25
2023-01-25T08:56:09.182Z,8.65
2023-01-25T08:58:38.077Z,7.75
2023-01-25T09:01:06.110Z,8.07
2023-01-25T09:03:36.147Z,7.70
2023-01-25T09:06:03.491Z,7.15
2023-01-25T09:08:30.675Z,7.60
2023-01-25T09:11:01.504Z,7.53
2023-01-25T09:13:28.797Z,7.85
2023-01-25T09:16:09.954Z,6.93
2023-01-25T09:18:37.941Z,7.55
2023-01-25T09:21:09.242Z,7.85
2023-01-25T09:23:50.283Z,7.63
2023-01-25T09:26:19.385Z,7.15
2023-01-25T09:28:50.704Z,7.32
2023-01-25T09:31:22.406Z,7.65
2023-01-25T09:33:51.695Z,9.02
2023-01-25T09:36:19.072Z,8.30
2023-01-25T09:38:46.245Z,8.15
2023-01-25T09:41:28.882Z,8.05
2023-01-25T09:44:14.813Z,7.05
2023-01-25T09:46:52.348Z,7.13
2023-01-25T09:49:28.840Z,7.88
2023-01-25T09:52:08.132Z,7.78
2023-01-25T09:54:46.573Z,7.72
2023-01-25T09:57:22.577Z,6.78
2023-01-25T09:59:51.724Z,7.60
2023-01-25T10:02:30.833Z,7.90
2023-01-25T10:05:01.365Z,8.45
2023-01-25T10:07:31.729Z,8.10
2023-01-25T10:10:06.379Z,7.60
2023-01-25T10:12:36.170Z,7.35
2023-01-25T10:15:03.443Z,7.80
2023-01-25T10:17:36.203Z,8.02
2023-01-25T10:20:10.335Z,7.95
2023-01-25T10:22:42.531Z,7.75
2023-01-25T10:25:22.007Z,8.25
2023-01-25T10:27:50.149Z,10.02
2023-01-25T10:30:26.586Z,8.65
2023-01-25T10:32:56.382Z,8.45
2023-01-25T10:35:34.874Z,8.05
2023-01-25T10:38:11.950Z,7.72
2023-01-25T10:40:44.132Z,8.57
2023-01-25T10:43:17.694Z,9.27
2023-01-25T10:45:45.259Z,8.20
2023-01-25T10:48:16.494Z,8.02
2023-01-25T10:50:46.319Z,8.63
2023-01-25T10:53:22.763Z,7.97
2023-01-25T10:56:00.575Z,6.78
2023-01-25T10:58:31.648Z,7.70
2023-01-25T11:00:58.882Z,7.20
2023-01-25T11:03:34.622Z,7.63
2023-01-25T11:06:01.766Z,8.20
2023-01-25T11:08:31.927Z,7.72
2023-01-25T11:10:59.810Z,7.97
2023-01-25T11:13:28.134Z,6.68
2023-01-25T11:16:07.207Z,7.72
2023-01-25T11:18:38.255Z,8.13
2023-01-25T11:21:05.475Z,7.70
2023-01-25T11:23:33.825Z,8.15
2023-01-25T11:26:12.071Z,7.80
2023-01-25T11:28:39.256Z,7.57
2023-01-25T11:31:06.901Z,8.48
2023-01-25T11:33:34.127Z,8.18
2023-01-25T11:36:14.825Z,9.40
2023-01-25T11:38:48.504Z,10.15
2023-01-25T11:41:18.694Z,9.23
2023-01-25T11:43:45.919Z,8.90
2023-01-25T11:46:22.335Z,8.48
2023-01-25T11:49:06.287Z,9.00
2023-01-25T11:51:33.545Z,9.52
2023-01-25T11:54:39.394Z,9.20
2023-01-25T11:57:21.581Z,8.48
2023-01-25T11:59:57.396Z,8.80
2023-01-25T12:02:30.417Z,9.15
2023-01-25T12:05:21.669Z,8.43
2023-01-25T12:07:57.829Z,8.93
2023-01-25T12:10:31.125Z,9.23
2023-01-25T12:13:07.843Z,8.30
2023-01-25T12:15:38.142Z,10.15
2023-01-25T12:18:08.466Z,9.63
2023-01-25T12:20:38.796Z,8.57
2023-01-25T12:23:09.059Z,8.50
2023-01-25T12:25:42.256Z,7.95
2023-01-25T12:28:15.275Z,8.93
2023-01-25T12:31:00.927Z,8.63
2023-01-25T12:33:31.138Z,8.98
2023-01-25T12:36:04.236Z,10.43
2023-01-25T12:38:36.169Z,9.57
2023-01-25T12:41:04.930Z,10.15
2023-01-25T12:43:32.787Z,9.70
2023-01-25T12:46:00.403Z,8.98
2023-01-25T12:48:37.388Z,9.20
2023-01-25T12:51:05.928Z,9.90
2023-01-25T12:53:41.792Z,9.52
2023-01-25T12:56:10.370Z,9.30
2023-01-25T12:58:43.547Z,10.93
2023-01-25T13:01:28.907Z,10.88
2023-01-25T13:04:25.345Z,10.82
2023-01-25T13:07:00.487Z,10.27
2023-01-25T13:09:40.438Z,10.18
2023-01-25T13:12:11.634Z,10.82
2023-01-25T13:14:40.051Z,11.80
2023-01-25T13:17:21.728Z,10.68
2023-01-25T13:19:49.496Z,10.63
2023-01-25T13:22:36.654Z,11.55
2023-01-25T13:25:03.917Z,10.93
2023-01-25T13:27:34.699Z,11.27
2023-01-25T13:30:03.737Z,12.43
2023-01-25T13:32:33.948Z,11.68
2023-01-25T13:35:01.974Z,11.40
2023-01-25T13:37:30.319Z,11.40
2023-01-25T13:40:08.041Z,10.68
2023-01-25T13:42:37.014Z,10.55
2023-01-25T13:45:18.490Z,10.43
2023-01-25T13:47:59.549Z,11.10
2023-01-25T13:50:27.606Z,10.45
2023-01-25T13:52:57.848Z,11.07
2023-01-25T13:55:25.018Z,11.20
2023-01-25T13:57:52.512Z,12.18
2023-01-25T14:00:19.973Z,10.98
2023-01-25T14:02:49.508Z,12.40
2023-01-25T14:05:23.848Z,13.68
2023-01-25T14:07:52.306Z,13.13
2023-01-25T14:10:23.549Z,12.43
2023-01-25T14:12:52.297Z,12.43
2023-01-25T14:15:20.670Z,13.57
2023-01-25T14:18:04.114Z,12.75
2023-01-25T14:20:31.599Z,11.95
2023-01-25T14:22:58.736Z,12.20
2023-01-25T14:25:28.673Z,11.75
2023-01-25T14:27:57.957Z,12.20
2023-01-25T14:30:35.482Z,11.00
2023-01-25T14:33:04.226Z,12.40
2023-01-25T14:35:42.442Z,12.27
2023-01-25T14:38:22.957Z,11.30
2023-01-25T14:40:51.492Z,11.68
2023-01-25T14:43:18.772Z,12.27
2023-01-25T14:45:46.277Z,11.05
2023-01-25T14:48:32.236Z,12.30
2023-01-25T14:51:26.519Z,10.68
2023-01-25T14:53:59.888Z,10.65
2023-01-25T14:56:29.767Z,10.10
2023-01-25T14:59:00.067Z,11.68
2023-01-25T15:01:32.743Z,10.05
2023-01-25T15:03:59.987Z,11.70
2023-01-25T15:06:27.117Z,12.02
2023-01-25T15:08:54.348Z,11.32
2023-01-25T15:11:58.297Z,11.05
2023-01-25T15:14:27.399Z,11.27
2023-01-25T15:16:58.738Z,13.63
2023-01-25T15:19:27.681Z,12.23
2023-01-25T15:21:55.397Z,11.80
2023-01-25T15:24:23.625Z,14.07
2023-01-25T15:26:52.245Z,12.48
2023-01-25T15:29:25.771Z,12.07
2023-01-25T15:31:53.126Z,11.60
2023-01-25T15:34:29.343Z,13.05
2023-01-25T15:36:56.501Z,12.40
2023-01-25T15:39:23.759Z,12.30
2023-01-25T15:41:50.902Z,12.00
2023-01-25T15:44:20.165Z,12.50
2023-01-25T15:46:49.340Z,12.32
2023-01-25T15:49:18.788Z,13.95
2023-01-25T15:51:46.830Z,13.10
2023-01-25T15:54:14.009Z,13.23
2023-01-25T15:56:42.711Z,12.70
2023-01-25T15:59:14.168Z,13.13
2023-01-25T16:01:41.372Z,13.38
2023-01-25T16:04:10.533Z,13.45
2023-01-25T16:06:38.049Z,12.55
2023-01-25T16:09:15.835Z,12.68
2023-01-25T16:11:43.137Z,12.57
2023-01-25T16:14:10.294Z,12.65
2023-01-25T16:16:52.169Z,13.45
2023-01-25T16:19:21.364Z,12.15
2023-01-25T16:21:48.840Z,12.65
2023-01-25T16:24:16.463Z,11.63
2023-01-25T16:26:49.092Z,11.73
2023-01-25T16:29:16.242Z,11.43
2023-01-25T16:31:43.458Z,11.02
2023-01-25T16:34:10.703Z,12.00
2023-01-25T16:36:39.559Z,10.55
2023-01-25T16:39:13.387Z,10.90
2023-01-25T16:41:40.559Z,10.32
2023-01-25T16:44:07.999Z,10.38
2023-01-25T16:46:35.272Z,9.93
2023-01-25T16:49:05.112Z,9.70
2023-01-25T16:51:33.140Z,10.52
2023-01-25T16:54:00.319Z,10.75
2023-01-25T16:56:31.456Z,11.07
2023-01-25T16:59:01.276Z,10.13
2023-01-25T17:01:28.479Z,10.43
2023-01-25T17:03:56.295Z,10.45
2023-01-25T17:06:24.054Z,9.88
2023-01-25T17:08:51.321Z,9.70
2023-01-25T17:11:19.285Z,9.45
2023-01-25T17:13:53.795Z,9.85
2023-01-25T17:16:22.212Z,10.35
2023-01-25T17:18:54.069Z,9.85
2023-01-25T17:21:21.279Z,9.55
2023-01-25T17:23:51.242Z,10.70
2023-01-25T17:26:19.403Z,10.02
2023-01-25T17:28:47.288Z,10.02
2023-01-25T17:31:15.552Z,9.98
2023-01-25T17:33:42.724Z,9.90
2023-01-25T17:36:09.912Z,10.77
2023-01-25T17:38:37.267Z,9.57
2023-01-25T17:41:08.521Z,10.52
2023-01-25T17:43:36.032Z,10.20
2023-01-25T17:46:12.499Z,9.57
2023-01-25T17:48:40.094Z,10.60
2023-01-25T17:51:07.422Z,9.02
2023-01-25T17:53:34.548Z,9.73
2023-01-25T17:56:02.922Z,9.52
2023-01-25T17:58:30.579Z,10.00
2023-01-25T18:01:11.951Z,9.88
2023-01-25T18:03:40.571Z,11.00
2023-01-25T18:06:09.578Z,10.73
2023-01-25T18:08:40.678Z,10.88
2023-01-25T18:11:08.932Z,10.27
2023-01-25T18:13:39.316Z,9.50
2023-01-25T18:16:07.182Z,9.85
2023-01-25T18:18:34.436Z,10.35
2023-01-25T18:21:06.155Z,9.80
2023-01-25T18:23:33.299Z,9.07
2023-01-25T18:26:00.525Z,9.43
2023-01-25T18:28:27.964Z,10.02
2023-01-25T18:30:59.830Z,10.00
2023-01-25T18:33:27.444Z,10.10
2023-01-25T18:35:57.276Z,11.57
2023-01-25T18:38:24.613Z,11.50
2023-01-25T18:40:51.769Z,10.63
2023-01-25T18:43:19.868Z,11.40
2023-01-25T18:45:47.130Z,10.02
2023-01-25T18:48:14.329Z,10.65
2023-01-25T18:50:41.801Z,10.30
2023-01-25T18:53:12.279Z,11.50
2023-01-25T18:55:39.482Z,10.57
2023-01-25T18:58:07.364Z,10.40
2023-01-25T19:00:35.003Z,9.73
2023-01-25T19:03:02.390Z,11.05
2023-01-25T19:05:29.542Z,9.75
2023-01-25T19:07:57.272Z,10.07
2023-01-25T19:10:24.372Z,10.15
2023-01-25T19:12:51.533Z,10.85
2023-01-25T19:15:18.730Z,11.75
2023-01-25T19:17:45.901Z,12.88
2023-01-25T19:20:13.031Z,11.18
2023-01-25T19:22:40.574Z,11.38
2023-01-25T19:25:08.526Z,11.27
2023-01-25T19:27:35.926Z,11.00
2023-01-25T19:30:03.044Z,11.35
2023-01-25T19:32:30.202Z,11.90
2023-01-25T19:34:57.371Z,11.38
2023-01-25T19:37:24.594Z,11.45
2023-01-25T19:39:51.783Z,10.98
2023-01-25T19:42:19.019Z,9.68
2023-01-25T19:44:46.160Z,11.38
2023-01-25T19:47:13.276Z,10.82
2023-01-25T19:49:40.435Z,9.82
2023-01-25T19:52:07.674Z,9.90
2023-01-25T19:54:34.803Z,10.50
2023-01-25T19:57:01.950Z,10.00
2023-01-25T19:59:29.336Z,9.73
2023-01-25T20:01:57.051Z,10.60
2023-01-25T20:04:24.805Z,9.93
2023-01-25T20:06:52.976Z,10.63
2023-01-25T20:09:27.807Z,9.65
2023-01-25T20:11:55.734Z,11.48
2023-01-25T20:14:23.346Z,10.40
2023-01-25T20:16:52.704Z,10.00
2023-01-25T20:19:20.110Z,9.82
2023-01-25T20:21:47.255Z,9.95
2023-01-25T20:24:14.520Z,10.07
2023-01-25T20:26:43.109Z,10.35
2023-01-25T20:29:11.277Z,10.07
2023-01-25T20:31:41.136Z,8.95
2023-01-25T20:34:10.814Z,9.20
2023-01-25T20:36:37.994Z,9.57
2023-01-25T20:39:06.039Z,9.27
2023-01-25T20:41:33.344Z,10.43
2023-01-25T20:44:01.993Z,9.23
2023-01-25T20:46:33.723Z,9.48
2023-01-25T20:49:01.390Z,9.73
2023-01-25T20:51:28.559Z,8.38
2023-01-25T20:53:56.004Z,8.73
2023-01-25T20:56:23.757Z,9.52
2023-01-25T20:58:51.465Z,9.82
2023-01-25T21:01:20.571Z,9.98
2023-01-25T21:03:47.883Z,9.27
2023-01-25T21:06:15.332Z,9.60
2023-01-25T21:08:42.749Z,9.82
2023-01-25T21:11:11.489Z,9.23
2023-01-25T21:13:38.623Z,9.25
2023-01-25T21:16:07.640Z,10.30
2023-01-25T21:18:35.950Z,10.68
2023-01-25T21:21:03.922Z,9.60
2023-01-25T21:23:33.419Z,9.52
2023-01-25T21:26:01.043Z,9.70
2023-01-25T21:28:29.133Z,11.32
2023-01-25T21:30:56.399Z,10.93
2023-01-25T21:33:24.154Z,11.02
2023-01-25T21:35:54.310Z,10.80
2023-01-25T21:38:21.641Z,11.10
2023-01-25T21:40:48.817Z,10.40
2023-01-25T21:43:17.893Z,11.05
2023-01-25T21:46:03.675Z,10.80
2023-01-25T21:48:49.629Z,9.30
2023-01-25T21:51:35.549Z,10.48
2023-01-25T21:54:02.710Z,11.13
2023-01-25T21:56:30.246Z,10.63
2023-01-25T21:58:57.374Z,11.93
2023-01-25T22:01:24.619Z,10.73
2023-01-25T22:03:52.176Z,10.45
2023-01-25T22:06:19.812Z,11.23
2023-01-25T22:08:47.215Z,9.57
2023-01-25T22:11:14.782Z,10.13
2023-01-25T22:13:41.958Z,9.88
2023-01-25T22:16:10.150Z,9.25
2023-01-25T22:18:41.633Z,11.02
2023-01-25T22:21:13.859Z,9.88
2023-01-25T22:23:40.983Z,10.43
2023-01-25T22:26:09.577Z,10.95
2023-01-25T22:28:47.439Z,10.57
2023-01-25T22:31:33.225Z,9.90
2023-01-25T22:34:00.501Z,9.40
2023-01-25T22:36:28.819Z,9.43
2023-01-25T22:38:56.014Z,9.57
2023-01-25T22:41:24.280Z,9.77
2023-01-25T22:43:51.734Z,10.90
2023-01-25T22:46:20.039Z,10.68
2023-01-25T22:48:47.595Z,9.27
2023-01-25T22:51:17.838Z,9.82
2023-01-25T22:53:45.046Z,9.60
2023-01-25T22:56:18.999Z,10.80
2023-01-25T22:58:46.799Z,10.30
2023-01-25T23:01:18.060Z,10.48
2023-01-25T23:03:45.502Z,9.65
2023-01-25T23:06:13.722Z,10.07
2023-01-25T23:08:40.966Z,8.93
2023-01-25T23:11:12.554Z,10.77
2023-01-25T23:13:39.985Z,10.75
2023-01-25T23:16:08.287Z,10.95
2023-01-25T23:18:50.779Z,10.77
2023-01-25T23:21:18.686Z,10.52
2023-01-25T23:23:46.247Z,11.00
2023-01-25T23:26:13.787Z,10.95
2023-01-25T23:28:40.922Z,11.40
2023-01-25T23:31:18.664Z,11.27
2023-01-25T23:33:50.167Z,10.95
2023-01-25T23:36:19.091Z,11.85
2023-01-25T23:38:46.661Z,10.10
2023-01-25T23:41:14.492Z,10.05
2023-01-25T23:43:41.697Z,10.15
2023-01-25T23:46:09.527Z,9.20
2023-01-25T23:48:36.719Z,10.55
2023-01-25T23:51:04.060Z,9.80
2023-01-25T23:53:31.555Z,9.80
2023-01-25T23:56:00.444Z,10.82
2023-01-25T23:58:27.957Z,10.20
